Time;durP1;ratioP1;P1;durP2;ratioP2;P2;SDS_P1;SDS_P2;PMS_P1;PMS_P2;Temp;Humidity;BMP_temperature;BMP_pressure;BME280_temperature;BME280_humidity;BME280_pressure;Samples;Min_cycle;Max_cycle;Signal;HPM_P1;HPM_P2
2022/11/17 00:01:31;;;;;;;0.53;0.27;;;11.80;99.90;;;;;;4933034;29;20503;-75
2022/11/17 00:04:01;;;;;;;0.50;0.10;;;11.80;99.90;;;;;;4935325;29;20510;-76
2022/11/17 00:06:28;;;;;;;0.50;0.10;;;11.80;99.90;;;;;;4939523;29;20468;-77
2022/11/17 00:08:56;;;;;;;0.50;0.10;;;11.80;99.90;;;;;;4938964;29;20447;-77
2022/11/17 00:11:24;;;;;;;0.50;0.10;;;11.80;99.90;;;;;;4937965;29;20448;-75
2022/11/17 00:16:37;;;;;;;0.50;0.10;;;11.80;99.90;;;;;;4938213;29;20440;-77
2022/11/17 00:21:53;;;;;;;0.50;0.10;;;11.80;99.90;;;;;;4937480;29;20965;-76
2022/11/17 00:24:22;;;;;;;0.50;0.10;;;11.70;99.90;;;;;;4937665;29;20559;-75
2022/11/17 00:27:02;;;;;;;0.50;0.10;;;11.70;99.90;;;;;;4940739;29;20947;-76
2022/11/17 00:29:30;;;;;;;0.50;0.10;;;11.70;99.90;;;;;;4939385;29;20998;-75
2022/11/17 00:34:45;;;;;;;0.50;0.10;;;11.70;99.90;;;;;;4937610;29;20547;-75
2022/11/17 00:37:14;;;;;;;0.50;0.10;;;11.70;99.90;;;;;;4937744;29;20511;-77
2022/11/17 00:39:42;;;;;;;0.93;0.77;;;11.70;99.90;;;;;;4937700;29;20480;-76
2022/11/17 00:42:10;;;;;;;0.50;0.10;;;11.70;99.90;;;;;;4937517;29;20455;-75
2022/11/17 00:44:37;;;;;;;0.50;0.10;;;11.70;99.90;;;;;;4936601;29;20895;-75
2022/11/17 00:47:05;;;;;;;0.50;0.10;;;11.60;99.90;;;;;;4937372;29;20487;-74
2022/11/17 00:49:33;;;;;;;0.50;0.10;;;11.60;99.90;;;;;;4937517;29;20452;-76
2022/11/17 00:52:03;;;;;;;0.50;0.10;;;11.60;99.90;;;;;;4936923;29;20565;-78
2022/11/17 00:54:30;;;;;;;0.50;0.10;;;11.60;99.90;;;;;;4937118;29;20527;-77
2022/11/17 00:56:58;;;;;;;0.50;0.10;;;11.60;99.90;;;;;;4937583;29;20448;-76
2022/11/17 00:59:26;;;;;;;0.50;0.10;;;11.50;99.90;;;;;;4942200;29;20456;-75
2022/11/17 05:01:12;;;;;;;7.93;7.20;;;11.40;99.90;;;;;;5720229;23;20483;-72
2022/11/17 05:03:44;;;;;;;0.50;0.10;;;11.40;99.90;;;;;;4948121;29;20505;-71
2022/11/17 05:06:14;;;;;;;0.50;0.10;;;11.30;99.90;;;;;;4950327;29;20476;-70
2022/11/17 05:08:42;;;;;;;0.50;0.10;;;11.20;99.90;;;;;;4947109;29;20506;-71
2022/11/17 05:13:54;;;;;;;0.50;0.10;;;11.20;99.90;;;;;;4889055;29;20444;-71
2022/11/17 05:19:11;;;;;;;0.50;0.10;;;11.30;99.90;;;;;;4950242;29;20475;-75
2022/11/17 05:21:38;;;;;;;0.50;0.10;;;11.30;99.90;;;;;;4950451;29;20435;-74
2022/11/17 05:24:06;;;;;;;0.50;0.10;;;11.30;99.90;;;;;;4946593;29;20483;-75
2022/11/17 05:26:37;;;;;;;0.50;0.10;;;11.40;99.90;;;;;;4937377;29;21010;-74
2022/11/17 05:29:06;;;;;;;0.50;0.10;;;11.40;99.90;;;;;;4931900;29;20451;-75
2022/11/17 05:31:36;;;;;;;0.50;0.10;;;11.40;99.90;;;;;;4929890;29;20460;-74
2022/11/17 05:34:05;;;;;;;1.83;1.73;;;11.40;99.90;;;;;;4932486;29;21031;-74
2022/11/17 05:36:34;;;;;;;15.57;14.37;;;11.50;99.90;;;;;;4933537;29;20982;-76
2022/11/17 05:39:03;;;;;;;0.50;0.10;;;11.50;99.90;;;;;;4938334;29;20507;-74
2022/11/17 05:41:31;;;;;;;0.50;0.10;;;11.50;99.90;;;;;;4930229;29;20445;-75
2022/11/17 05:43:59;;;;;;;0.50;0.10;;;11.50;99.90;;;;;;4924270;29;20561;-75
2022/11/17 05:46:27;;;;;;;0.50;0.10;;;11.50;99.90;;;;;;4925416;29;20504;-76
2022/11/17 05:48:56;;;;;;;0.50;0.10;;;11.50;99.90;;;;;;4922075;29;20483;-75
2022/11/17 05:51:24;;;;;;;0.60;0.50;;;11.60;99.90;;;;;;4919227;29;20461;-75
2022/11/17 05:53:52;;;;;;;0.50;0.10;;;11.60;99.90;;;;;;4918137;29;20456;-76
2022/11/17 05:56:31;;;;;;;0.50;0.10;;;11.60;99.90;;;;;;4918134;29;20468;-76
2022/11/17 05:59:06;;;;;;;0.50;0.10;;;11.60;99.90;;;;;;4917238;29;20858;-74
2022/11/17 06:01:36;;;;;;;0.50;0.10;;;11.60;99.90;;;;;;4934236;29;20452;-77
2022/11/17 06:04:08;;;;;;;0.50;0.10;;;11.60;99.90;;;;;;4937924;29;20494;-76
2022/11/17 06:06:37;;;;;;;0.50;0.10;;;11.60;99.90;;;;;;4937788;29;20854;-77
2022/11/17 06:09:06;;;;;;;0.50;0.10;;;11.50;99.90;;;;;;4935717;29;20542;-75
2022/11/17 06:11:34;;;;;;;0.50;0.10;;;11.60;99.90;;;;;;4926920;29;20468;-75
2022/11/17 06:14:02;;;;;;;0.53;0.10;;;11.60;99.90;;;;;;4932928;29;20444;-75
2022/11/17 06:16:32;;;;;;;0.50;0.10;;;11.60;99.90;;;;;;4934453;29;20598;-77
2022/11/17 06:19:04;;;;;;;0.50;0.10;;;11.60;99.90;;;;;;4929738;29;20453;-76
2022/11/17 06:21:34;;;;;;;0.50;0.10;;;11.50;99.90;;;;;;4928428;29;20459;-76
2022/11/17 06:24:22;;;;;;;0.50;0.10;;;11.50;99.90;;;;;;4923068;29;20481;-75
2022/11/17 06:26:50;;;;;;;0.50;0.10;;;11.50;99.90;;;;;;4930489;29;20483;-76
2022/11/17 06:29:18;;;;;;;0.50;0.10;;;11.50;99.90;;;;;;4936293;29;20479;-74
2022/11/17 06:31:47;;;;;;;0.50;0.10;;;11.50;99.90;;;;;;4930541;29;20464;-75
2022/11/17 06:34:15;;;;;;;0.50;0.10;;;11.50;99.90;;;;;;4929427;29;20444;-77
2022/11/17 06:36:44;;;;;;;0.50;0.10;;;11.50;99.90;;;;;;4922501;29;20468;-76
2022/11/17 06:39:12;;;;;;;0.50;0.10;;;11.60;99.90;;;;;;4924938;29;20459;-76
2022/11/17 06:41:40;;;;;;;0.50;0.10;;;11.60;99.90;;;;;;4935979;29;20447;-76
2022/11/17 06:44:09;;;;;;;0.50;0.10;;;11.60;99.90;;;;;;4930184;29;20543;-75
2022/11/17 06:46:37;;;;;;;0.50;0.20;;;11.50;99.90;;;;;;4929922;29;20464;-76
2022/11/17 06:49:06;;;;;;;0.50;0.10;;;;;;;;;;4938100;29;20451;-77
2022/11/17 06:51:34;;;;;;;0.50;0.10;;;11.50;99.90;;;;;;4932436;29;20471;-77
2022/11/17 06:54:08;;;;;;;0.50;0.10;;;11.50;99.90;;;;;;4936205;29;20452;-76
2022/11/17 06:56:39;;;;;;;0.50;0.10;;;11.50;99.90;;;;;;4932816;29;20480;-76
2022/11/17 06:59:07;;;;;;;0.50;0.10;;;11.50;99.90;;;;;;4939169;29;20464;-75
2022/11/17 07:01:36;;;;;;;0.50;0.10;;;11.50;99.90;;;;;;4939372;29;20444;-76
2022/11/17 07:04:04;;;;;;;0.50;0.10;;;11.50;99.90;;;;;;4936138;29;20484;-75
2022/11/17 07:06:36;;;;;;;0.50;0.10;;;11.50;99.90;;;;;;4925823;29;20524;-77
2022/11/17 07:09:04;;;;;;;0.50;0.10;;;11.50;99.90;;;;;;4918538;29;20453;-75
2022/11/17 07:11:34;;;;;;;0.50;0.10;;;11.60;99.90;;;;;;4924607;29;20500;-75
2022/11/17 07:14:02;;;;;;;0.50;0.10;;;11.50;99.90;;;;;;4934372;29;20986;-77
2022/11/17 07:16:31;;;;;;;0.50;0.10;;;11.60;99.90;;;;;;4930831;29;20483;-76
2022/11/17 07:19:02;;;;;;;0.50;0.10;;;11.60;99.90;;;;;;4919216;29;20468;-77
2022/11/17 07:21:30;;;;;;;0.50;0.10;;;11.50;99.90;;;;;;4930708;29;20864;-75
2022/11/17 07:23:57;;;;;;;0.50;0.10;;;11.50;99.90;;;;;;4914738;29;20535;-76
2022/11/17 07:26:25;;;;;;;0.50;0.10;;;11.60;99.90;;;;;;4917830;29;20565;-77
2022/11/17 07:28:55;;;;;;;0.50;0.10;;;11.60;99.90;;;;;;4938793;29;20530;-77
2022/11/17 07:31:22;;;;;;;0.50;0.10;;;11.60;99.90;;;;;;4940388;29;20930;-76
2022/11/17 07:33:50;;;;;;;0.50;0.10;;;11.60;99.90;;;;;;4924735;29;20445;-79
2022/11/17 07:36:18;;;;;;;0.50;0.10;;;11.60;99.90;;;;;;4928960;29;20555;-81
2022/11/17 07:38:46;;;;;;;0.50;0.10;;;11.70;99.90;;;;;;4928114;29;20449;-79
2022/11/17 07:41:14;;;;;;;0.50;0.10;;;11.70;99.90;;;;;;4941643;29;20468;-77
2022/11/17 07:43:43;;;;;;;0.50;0.10;;;11.80;99.90;;;;;;4922205;29;20449;-77
2022/11/17 07:46:14;;;;;;;0.50;0.10;;;11.80;99.90;;;;;;4917885;29;20496;-77
2022/11/17 07:48:43;;;;;;;0.50;0.10;;;11.80;99.90;;;;;;4923555;29;20946;-76
2022/11/17 07:51:12;;;;;;;0.50;0.10;;;11.90;99.90;;;;;;4939479;29;20459;-78
2022/11/17 07:53:41;;;;;;;0.50;0.10;;;11.90;99.90;;;;;;4939596;29;20475;-77
2022/11/17 07:56:10;;;;;;;0.50;0.10;;;12.00;99.90;;;;;;4920672;29;20520;-76
2022/11/17 07:58:39;;;;;;;0.50;0.10;;;12.10;99.90;;;;;;4919233;29;20452;-77
2022/11/17 08:01:15;;;;;;;0.50;0.10;;;12.20;99.90;;;;;;4926557;29;20468;-73
2022/11/17 08:03:44;;;;;;;0.50;0.10;;;12.20;99.90;;;;;;4939096;29;20502;-78
2022/11/17 08:06:11;;;;;;;0.50;0.10;;;12.30;99.90;;;;;;4935542;29;20509;-76
2022/11/17 08:08:40;;;;;;;0.50;0.10;;;12.40;99.90;;;;;;4935642;29;20444;-78
2022/11/17 08:11:09;;;;;;;0.50;0.10;;;12.50;99.90;;;;;;4935533;29;20476;-78
2022/11/17 08:13:38;;;;;;;0.50;0.10;;;12.60;99.90;;;;;;4935070;29;20463;-78
2022/11/17 08:16:07;;;;;;;0.50;0.10;;;12.70;99.90;;;;;;4935767;29;20475;-75
2022/11/17 08:18:36;;;;;;;0.50;0.10;;;12.70;99.90;;;;;;4936232;29;20927;-76
2022/11/17 08:21:07;;;;;;;0.50;0.10;;;12.80;99.90;;;;;;4936863;29;20454;-77
2022/11/17 08:23:36;;;;;;;0.60;0.10;;;12.80;99.90;;;;;;4936893;29;20448;-76
2022/11/17 08:26:05;;;;;;;0.50;0.10;;;12.90;99.90;;;;;;4922130;29;20547;-76
2022/11/17 08:28:33;;;;;;;0.50;0.10;;;12.90;99.90;;;;;;4922962;29;20523;-75
2022/11/17 08:31:03;;;;;;;2.40;2.20;;;12.90;99.90;;;;;;4923009;29;20488;-78
2022/11/17 08:33:31;;;;;;;0.53;0.20;;;12.80;99.90;;;;;;4924317;29;20448;-77
2022/11/17 08:36:01;;;;;;;0.50;0.10;;;12.80;99.90;;;;;;4938226;29;20855;-76
2022/11/17 08:38:30;;;;;;;0.53;0.20;;;12.80;99.90;;;;;;4939297;29;20530;-78
2022/11/17 08:40:58;;;;;;;0.50;0.10;;;12.80;99.90;;;;;;4940980;29;21038;-78
2022/11/17 08:43:26;;;;;;;0.50;0.10;;;12.80;99.90;;;;;;4943080;29;20448;-75
2022/11/17 08:45:53;;;;;;;0.60;0.17;;;12.90;99.90;;;;;;4942127;29;20499;-77
2022/11/17 08:48:23;;;;;;;2.57;0.40;;;12.80;99.90;;;;;;4925153;29;20532;-77
2022/11/17 08:50:51;;;;;;;0.50;0.10;;;12.90;99.90;;;;;;4938778;29;20472;-77
2022/11/17 08:53:22;;;;;;;0.60;0.10;;;12.90;99.90;;;;;;4944868;29;20448;-77
2022/11/17 08:55:50;;;;;;;0.50;0.10;;;13.00;99.90;;;;;;4936212;29;20501;-77
2022/11/17 08:58:18;;;;;;;0.60;0.10;;;12.90;99.90;;;;;;4930583;29;20448;-76
2022/11/17 09:00:46;;;;;;;0.50;0.10;;;13.00;99.90;;;;;;4929651;29;21007;-76
2022/11/17 09:03:14;;;;;;;0.83;0.20;;;13.10;99.90;;;;;;4928683;29;20471;-76
2022/11/17 09:05:45;;;;;;;0.60;0.10;;;13.10;99.90;;;;;;4921948;29;20495;-78
2022/11/17 09:08:13;;;;;;;0.60;0.10;;;13.10;99.90;;;;;;4923227;29;20452;-78
2022/11/17 09:11:06;;;;;;;0.60;0.20;;;13.20;99.90;;;;;;4937530;29;20496;-77
2022/11/17 09:13:35;;;;;;;0.60;0.10;;;13.20;99.90;;;;;;4936374;29;20474;-78
2022/11/17 09:16:06;;;;;;;0.60;0.10;;;13.20;99.90;;;;;;4937609;29;20471;-76
2022/11/17 09:18:35;;;;;;;0.60;0.10;;;13.20;99.90;;;;;;4938713;29;20844;-79
2022/11/17 09:21:06;;;;;;;0.60;0.13;;;13.20;99.90;;;;;;4938997;29;20977;-76
2022/11/17 09:23:35;;;;;;;0.60;0.10;;;13.20;99.90;;;;;;4939041;29;20458;-78
2022/11/17 09:26:07;;;;;;;0.60;0.10;;;13.20;99.90;;;;;;4938126;29;20480;-77
2022/11/17 09:28:35;;;;;;;2.63;0.30;;;13.10;99.90;;;;;;4923935;29;20911;-77
2022/11/17 09:31:06;;;;;;;2.90;2.40;;;13.10;99.90;;;;;;4933924;29;20450;-75
2022/11/17 09:33:34;;;;;;;0.60;0.10;;;13.10;99.90;;;;;;4936778;29;20467;-77
2022/11/17 09:36:02;;;;;;;0.60;0.20;;;13.20;99.90;;;;;;4936622;29;21008;-77
2022/11/17 09:38:30;;;;;;;0.60;0.10;;;13.20;99.90;;;;;;4937025;29;20468;-75
2022/11/17 09:40:59;;;;;;;0.60;0.10;;;13.20;99.90;;;;;;4936413;29;20959;-77
2022/11/17 09:43:32;;;;;;;0.60;0.10;;;13.20;99.90;;;;;;4936546;29;20447;-77
2022/11/17 09:46:13;;;;;;;0.60;0.10;;;13.20;99.90;;;;;;4936025;29;20492;-77
2022/11/17 09:48:47;;;;;;;0.60;0.10;;;13.20;99.90;;;;;;4937993;29;20451;-79
2022/11/17 09:51:20;;;;;;;1.47;0.30;;;13.20;99.90;;;;;;4939157;29;20439;-77
2022/11/17 09:53:55;;;;;;;0.60;0.20;;;13.20;99.90;;;;;;4938206;29;20433;-77
2022/11/17 09:56:25;;;;;;;0.60;0.20;;;13.30;99.90;;;;;;4937929;29;20472;-79
2022/11/17 09:58:58;;;;;;;0.60;0.10;;;13.30;99.90;;;;;;4925802;29;20464;-77
2022/11/17 10:01:28;;;;;;;2.77;0.47;;;13.30;99.90;;;;;;4922691;29;20505;-77
2022/11/17 10:03:58;;;;;;;0.97;0.87;;;13.40;99.90;;;;;;4921404;29;20545;-77
2022/11/17 10:06:28;;;;;;;2.93;0.53;;;13.40;99.90;;;;;;4920057;29;20488;-76
2022/11/17 10:09:01;;;;;;;0.60;0.20;;;13.40;99.90;;;;;;4918319;29;20464;-77
2022/11/17 10:11:33;;;;;;;1.83;0.40;;;13.40;99.90;;;;;;4917906;29;20456;-76
2022/11/17 10:14:11;;;;;;;0.60;0.10;;;13.40;99.90;;;;;;4918133;29;20496;-76
2022/11/17 10:16:41;;;;;;;2.30;1.17;;;13.50;99.90;;;;;;4917351;29;20532;-78
2022/11/17 10:19:15;;;;;;;0.60;0.10;;;13.50;99.90;;;;;;4917527;29;20519;-76
2022/11/17 10:21:43;;;;;;;4.00;1.43;;;13.50;99.90;;;;;;4917320;29;20433;-77
2022/11/17 10:24:11;;;;;;;0.97;0.77;;;13.50;99.90;;;;;;4918082;29;20449;-75
2022/11/17 10:26:47;;;;;;;0.60;0.10;;;13.50;99.90;;;;;;4933150;29;20523;-76
2022/11/17 10:29:22;;;;;;;0.60;0.47;;;13.50;99.90;;;;;;4947066;29;20451;-76
2022/11/17 10:31:50;;;;;;;0.60;0.10;;;;;;;;;;4940191;29;20455;-76
2022/11/17 10:34:31;;;;;;;0.60;0.10;;;13.60;99.90;;;;;;4943544;29;20480;-77
2022/11/17 10:37:23;;;;;;;0.60;0.20;;;13.70;99.90;;;;;;4943553;29;20465;-77
2022/11/17 10:40:13;;;;;;;0.60;0.10;;;13.70;99.90;;;;;;4944011;29;20451;-76
2022/11/17 10:42:56;;;;;;;0.60;0.20;;;13.70;99.90;;;;;;4938962;29;20448;-77
2022/11/17 10:45:26;;;;;;;1.87;0.77;;;13.70;99.90;;;;;;4938845;29;20819;-77
2022/11/17 10:48:07;;;;;;;0.60;0.20;;;13.70;99.90;;;;;;4937774;29;20459;-75
2022/11/17 10:50:36;;;;;;;0.60;0.20;;;13.60;99.90;;;;;;4936391;29;20978;-76
2022/11/17 10:53:22;;;;;;;0.60;0.20;;;13.50;99.90;;;;;;4936193;29;20887;-77
2022/11/17 10:55:56;;;;;;;0.60;0.10;;;13.40;99.90;;;;;;4936580;29;20479;-77
2022/11/17 10:58:26;;;;;;;0.60;0.20;;;13.40;99.90;;;;;;4936372;29;20470;-78
2022/11/17 11:00:57;;;;;;;0.60;0.30;;;13.40;99.90;;;;;;4917923;29;20444;-76
2022/11/17 11:03:29;;;;;;;1.27;0.43;;;13.40;99.90;;;;;;4916350;29;20449;-76
2022/11/17 11:06:00;;;;;;;0.60;0.20;;;13.60;99.90;;;;;;4917013;29;20634;-77
2022/11/17 11:08:36;;;;;;;0.60;0.10;;;13.60;99.90;;;;;;4918833;29;20453;-76
2022/11/17 11:11:11;;;;;;;0.90;0.20;;;13.80;99.90;;;;;;4920799;29;20457;-77
2022/11/17 11:13:48;;;;;;;0.60;0.10;;;13.90;99.90;;;;;;4921997;29;20417;-76
2022/11/17 11:16:17;;;;;;;1.03;0.63;;;14.00;99.90;;;;;;4923846;29;20513;-78
2022/11/17 11:18:46;;;;;;;0.60;0.10;;;14.00;99.90;;;;;;4928774;29;20440;-78
2022/11/17 11:21:22;;;;;;;1.53;1.43;;;14.00;99.90;;;;;;4936959;29;20464;-77
2022/11/17 11:23:56;;;;;;;0.60;0.20;;;14.00;99.90;;;;;;4937585;29;21010;-79
2022/11/17 11:26:42;;;;;;;0.60;0.10;;;13.90;99.90;;;;;;4937205;29;20560;-79
2022/11/17 11:29:21;;;;;;;0.60;0.20;;;13.90;99.90;;;;;;4938182;29;20456;-78
2022/11/17 11:32:01;;;;;;;0.60;0.10;;;13.70;99.90;;;;;;4935144;29;20464;-79
2022/11/17 11:34:50;;;;;;;0.60;0.10;;;13.50;99.90;;;;;;4926265;29;20456;-79
2022/11/17 11:37:18;;;;;;;0.60;0.10;;;13.50;99.90;;;;;;4936161;29;20484;-77
2022/11/17 11:39:56;;;;;;;0.60;0.10;;;13.50;99.90;;;;;;4933233;29;20839;-78
2022/11/17 11:42:44;;;;;;;0.60;0.10;;;13.30;99.90;;;;;;4932998;29;20459;-78
2022/11/17 11:45:23;;;;;;;0.50;0.10;;;13.20;99.90;;;;;;4935563;29;20586;-78
2022/11/17 11:48:16;;;;;;;0.60;0.10;;;13.20;99.90;;;;;;4936170;29;20476;-78
2022/11/17 11:50:52;;;;;;;0.53;0.10;;;13.10;99.90;;;;;;4913288;29;20547;-76
2022/11/17 11:53:28;;;;;;;0.57;0.10;;;12.90;99.90;;;;;;4922560;29;20446;-76
2022/11/17 11:56:07;;;;;;;0.60;0.10;;;13.00;99.90;;;;;;4937727;29;20580;-75
2022/11/17 11:58:40;;;;;;;0.60;0.10;;;13.00;99.90;;;;;;4919212;29;20460;-77
2022/11/17 12:01:10;;;;;;;0.53;0.10;;;13.10;99.90;;;;;;4932458;29;20503;-76
2022/11/17 12:03:48;;;;;;;0.60;0.23;;;13.20;99.90;;;;;;4935975;29;20466;-77
2022/11/17 12:06:40;;;;;;;0.70;0.30;;;13.30;99.90;;;;;;4935370;29;20456;-82
2022/11/17 12:09:39;;;;;;;0.50;0.10;;;13.30;99.90;;;;;;4929863;29;20448;-80
2022/11/17 12:12:12;;;;;;;0.60;0.10;;;13.30;99.90;;;;;;4900825;29;20477;-78
2022/11/17 12:15:09;;;;;;;0.50;0.10;;;13.30;99.90;;;;;;4942773;29;20443;-77
2022/11/17 12:17:38;;;;;;;1.83;1.03;;;13.30;99.90;;;;;;4942254;29;20438;-79
2022/11/17 12:20:45;;;;;;;0.53;0.10;;;13.50;99.90;;;;;;4938816;29;20455;-79
2022/11/17 12:23:20;;;;;;;0.60;0.10;;;13.50;99.90;;;;;;4942330;29;20440;-79
2022/11/17 12:25:50;;;;;;;0.80;0.20;;;13.80;99.90;;;;;;4939641;29;20507;-78
2022/11/17 12:28:30;;;;;;;0.60;0.10;;;13.90;99.90;;;;;;4939027;29;20996;-78
2022/11/17 12:31:00;;;;;;;1.43;0.83;;;14.00;99.90;;;;;;4941080;29;20959;-78
2022/11/17 12:34:13;;;;;;;3.70;1.13;;;14.10;99.90;;;;;;4938327;29;20458;-79
2022/11/17 12:36:43;;;;;;;0.60;0.10;;;14.20;99.90;;;;;;4933602;29;20467;-78
2022/11/17 12:39:44;;;;;;;0.60;0.10;;;14.10;99.90;;;;;;4935210;29;20461;-77
2022/11/17 12:42:12;;;;;;;0.70;0.37;;;14.20;99.90;;;;;;4937238;29;20463;-77
2022/11/17 12:44:55;;;;;;;0.60;0.10;;;14.20;99.90;;;;;;4932704;29;20523;-78
2022/11/17 12:47:24;;;;;;;0.60;0.10;;;14.10;99.50;;;;;;4942825;29;20705;-78
2022/11/17 12:50:27;;;;;;;0.60;0.10;;;14.20;94.20;;;;;;4939996;29;20468;-79
2022/11/17 12:53:12;;;;;;;0.60;0.10;;;14.20;92.10;;;;;;4942247;29;20950;-78
2022/11/17 12:56:03;;;;;;;0.60;0.10;;;14.20;92.20;;;;;;4930296;29;20522;-80
2022/11/17 12:58:51;;;;;;;0.60;0.37;;;14.10;90.30;;;;;;4941608;29;20515;-79
2022/11/17 13:01:31;;;;;;;0.60;0.10;;;14.10;92.20;;;;;;4940889;29;20445;-80
2022/11/17 13:04:07;;;;;;;0.60;0.10;;;14.10;95.50;;;;;;4928615;29;20440;-80
2022/11/17 13:06:35;;;;;;;6.40;0.70;;;14.10;87.10;;;;;;4934787;29;20590;-79
2022/11/17 13:09:06;;;;;;;0.60;0.10;;;14.10;90.70;;;;;;4936679;29;20496;-79
2022/11/17 13:11:35;;;;;;;0.70;0.60;;;14.20;95.70;;;;;;4935875;29;20445;-79
2022/11/17 13:14:08;;;;;;;0.60;0.10;;;14.10;93.90;;;;;;4938300;29;20462;-78
2022/11/17 13:16:37;;;;;;;0.60;0.57;;;14.20;92.30;;;;;;4940473;29;20483;-79
2022/11/17 13:19:29;;;;;;;0.60;0.10;;;14.20;95.30;;;;;;4926783;29;20818;-79
2022/11/17 13:21:59;;;;;;;0.60;0.10;;;14.30;97.10;;;;;;4928689;29;20787;-78
2022/11/17 13:24:35;;;;;;;0.60;0.20;;;14.30;94.60;;;;;;4926085;29;20547;-79
2022/11/17 13:27:06;;;;;;;0.60;0.10;;;14.30;84.90;;;;;;4938219;29;20498;-78
2022/11/17 13:29:39;;;;;;;0.60;0.10;;;14.30;83.60;;;;;;4944678;29;20479;-78
2022/11/17 13:32:29;;;;;;;0.60;0.20;;;14.10;83.80;;;;;;4945361;29;20775;-80
2022/11/17 13:34:59;;;;;;;0.60;0.10;;;14.20;91.70;;;;;;4941998;29;20472;-80
2022/11/17 13:37:29;;;;;;;0.60;0.10;;;14.10;90.30;;;;;;4938607;29;20441;-77
2022/11/17 13:40:01;;;;;;;0.60;0.10;;;14.10;94.70;;;;;;4933778;29;20532;-80
2022/11/17 13:42:32;;;;;;;0.60;0.20;;;14.00;96.30;;;;;;4942675;29;20475;-78
2022/11/17 13:45:02;;;;;;;0.60;0.10;;;13.90;94.30;;;;;;4944808;29;20459;-80
2022/11/17 13:47:45;;;;;;;0.60;0.10;;;13.90;97.30;;;;;;4930375;29;20480;-79
2022/11/17 13:50:31;;;;;;;0.60;0.10;;;13.80;98.50;;;;;;4941827;29;20462;-80
2022/11/17 13:53:02;;;;;;;0.60;0.40;;;13.70;99.90;;;;;;4937920;29;20459;-79
2022/11/17 13:55:34;;;;;;;0.60;0.10;;;13.50;99.90;;;;;;4943472;29;20480;-78
2022/11/17 13:58:05;;;;;;;0.60;0.10;;;13.50;99.90;;;;;;4942501;29;20444;-79
2022/11/17 14:00:34;;;;;;;0.60;0.10;;;13.40;99.90;;;;;;4934771;29;20445;-78
2022/11/17 14:03:04;;;;;;;0.70;0.40;;;13.40;99.90;;;;;;4929218;29;20983;-79
2022/11/17 14:05:33;;;;;;;0.60;0.10;;;13.50;99.90;;;;;;4926031;29;20464;-79
2022/11/17 14:08:13;;;;;;;0.60;0.10;;;13.60;99.90;;;;;;4936236;29;20484;-79
2022/11/17 14:10:44;;;;;;;0.60;0.20;;;;;;;;;;4933471;29;20452;-79
2022/11/17 14:13:22;;;;;;;0.60;0.10;;;13.50;99.90;;;;;;4926991;29;20452;-77
2022/11/17 14:15:53;;;;;;;0.60;0.10;;;13.60;99.90;;;;;;4941841;29;20472;-78
2022/11/17 14:18:27;;;;;;;0.50;0.10;;;13.60;99.90;;;;;;4945923;29;20449;-78
2022/11/17 14:21:10;;;;;;;0.50;0.10;;;13.50;99.90;;;;;;4939045;29;20534;-78
2022/11/17 14:23:38;;;;;;;0.87;0.77;;;13.50;99.90;;;;;;4939155;29;20867;-78
2022/11/17 14:26:18;;;;;;;0.60;0.10;;;13.40;98.50;;;;;;4938040;29;20483;-78
2022/11/17 14:28:47;;;;;;;0.60;0.10;;;13.40;99.90;;;;;;4940915;29;20483;-79
2022/11/17 14:31:15;;;;;;;0.60;0.10;;;13.40;99.90;;;;;;4933129;29;20492;-79
2022/11/17 14:33:43;;;;;;;0.57;0.20;;;13.40;99.10;;;;;;4936005;29;20487;-79
2022/11/17 14:36:14;;;;;;;0.60;0.10;;;13.30;99.80;;;;;;4931554;29;20464;-76
2022/11/17 14:38:43;;;;;;;0.60;0.10;;;13.30;99.90;;;;;;4936238;29;20463;-78
2022/11/17 14:41:13;;;;;;;0.50;0.10;;;13.30;99.90;;;;;;4937251;29;20451;-75
2022/11/17 14:43:40;;;;;;;0.60;0.10;;;13.30;99.90;;;;;;4937300;29;20440;-78
2022/11/17 14:46:17;;;;;;;0.60;0.10;;;13.20;99.90;;;;;;4934158;29;20475;-78
2022/11/17 14:48:45;;;;;;;0.60;0.10;;;13.20;99.90;;;;;;4921407;29;20535;-77
2022/11/17 14:51:13;;;;;;;0.60;0.20;;;13.10;99.90;;;;;;4918931;29;20452;-77
2022/11/17 14:53:44;;;;;;;0.60;0.10;;;13.10;99.90;;;;;;4917914;29;20429;-78
2022/11/17 14:56:17;;;;;;;0.60;0.10;;;12.90;99.90;;;;;;4918190;29;20492;-76
2022/11/17 14:58:45;;;;;;;0.60;0.10;;;12.90;99.90;;;;;;4935009;29;20451;-78
2022/11/17 15:01:17;;;;;;;0.60;0.20;;;12.90;99.90;;;;;;4941067;29;20503;-78
2022/11/17 15:03:45;;;;;;;0.60;0.10;;;12.90;99.90;;;;;;4936259;29;20441;-79
2022/11/17 15:06:13;;;;;;;0.50;0.10;;;12.90;99.90;;;;;;4954661;23;20481;-77
2022/11/17 15:08:47;;;;;;;0.53;0.10;;;12.90;99.90;;;;;;4956116;29;20591;-79
2022/11/17 15:11:17;;;;;;;0.60;0.10;;;13.00;99.90;;;;;;4950706;29;20796;-78
2022/11/17 15:13:45;;;;;;;0.67;0.30;;;13.00;99.90;;;;;;4949047;29;20885;-76
2022/11/17 15:16:13;;;;;;;0.50;0.10;;;12.90;99.90;;;;;;4943306;29;20452;-78
2022/11/17 15:18:44;;;;;;;0.60;0.10;;;12.90;99.90;;;;;;4937977;29;20452;-79
2022/11/17 15:21:13;;;;;;;0.50;0.10;;;12.70;91.70;;;;;;4938421;29;20499;-77
2022/11/17 15:23:42;;;;;;;0.60;0.10;;;12.40;77.40;;;;;;4937167;29;20460;-80
2022/11/17 15:26:13;;;;;;;0.60;0.10;;;12.40;85.90;;;;;;4925143;29;20505;-82
2022/11/17 15:28:43;;;;;;;0.57;0.10;;;12.40;86.30;;;;;;4927362;29;20506;-79
2022/11/17 15:31:13;;;;;;;0.50;0.10;;;12.20;96.80;;;;;;4939326;29;20526;-79
2022/11/17 15:33:41;;;;;;;0.50;0.10;;;12.20;99.90;;;;;;4943201;29;20432;-79
2022/11/17 15:36:11;;;;;;;0.53;0.13;;;12.10;99.90;;;;;;4955162;29;20543;-79
2022/11/17 15:38:40;;;;;;;0.50;0.10;;;12.10;99.90;;;;;;4946938;29;20470;-80
2022/11/17 15:41:11;;;;;;;0.50;0.10;;;12.10;99.90;;;;;;4951954;29;20464;-80
2022/11/17 15:43:40;;;;;;;0.50;0.10;;;12.10;99.90;;;;;;4956224;29;20452;-80
2022/11/17 15:46:11;;;;;;;0.50;0.10;;;12.20;99.90;;;;;;4952370;29;20466;-79
2022/11/17 15:48:41;;;;;;;1.13;1.03;;;12.20;99.90;;;;;;4941275;29;20511;-80
2022/11/17 15:51:11;;;;;;;0.50;0.10;;;12.20;99.90;;;;;;4941270;29;20459;-80
2022/11/17 15:53:39;;;;;;;0.50;0.10;;;12.20;99.90;;;;;;4941267;29;20467;-80
2022/11/17 15:56:10;;;;;;;0.50;0.10;;;12.20;99.90;;;;;;4939317;29;20468;-79
2022/11/17 15:58:39;;;;;;;0.50;0.10;;;12.10;99.90;;;;;;4937715;29;20474;-80
2022/11/17 16:01:11;;;;;;;0.50;0.10;;;12.20;99.90;;;;;;4950840;29;20470;-79
2022/11/17 16:03:40;;;;;;;0.50;0.10;;;12.10;99.90;;;;;;4948858;29;20478;-79
2022/11/17 16:06:09;;;;;;;0.50;0.10;;;12.10;99.90;;;;;;4942602;29;20460;-79
2022/11/17 16:08:38;;;;;;;0.50;0.10;;;12.00;99.90;;;;;;4940021;29;21028;-79
2022/11/17 16:11:07;;;;;;;0.50;0.10;;;12.00;99.90;;;;;;4940332;29;20784;-78
2022/11/17 16:13:35;;;;;;;0.50;0.10;;;12.00;99.90;;;;;;4940464;29;20444;-80
2022/11/17 16:16:03;;;;;;;0.70;0.47;;;12.00;99.90;;;;;;4939541;29;20472;-80
2022/11/17 16:18:37;;;;;;;0.50;0.10;;;12.00;99.90;;;;;;4943181;29;20471;-79
2022/11/17 16:21:07;;;;;;;0.50;0.10;;;12.00;99.90;;;;;;4931987;29;20457;-79
2022/11/17 16:23:38;;;;;;;0.50;0.10;;;12.00;99.90;;;;;;4942077;29;20452;-76
2022/11/17 16:26:07;;;;;;;0.53;0.10;;;12.00;99.90;;;;;;4940957;29;20454;-78
2022/11/17 16:28:35;;;;;;;0.50;0.10;;;12.00;99.90;;;;;;4940820;29;20483;-78
2022/11/17 16:31:13;;;;;;;0.50;0.10;;;12.00;99.90;;;;;;4940708;29;20922;-76
2022/11/17 16:33:48;;;;;;;0.50;0.20;;;12.00;99.90;;;;;;4925776;29;20463;-76
2022/11/17 16:36:16;;;;;;;0.50;0.10;;;12.00;99.90;;;;;;4920702;29;20444;-75
2022/11/17 16:38:44;;;;;;;0.50;0.20;;;12.00;99.90;;;;;;4920776;29;20445;-77
2022/11/17 16:41:30;;;;;;;0.50;0.10;;;11.90;99.90;;;;;;4937816;29;20519;-76
2022/11/17 16:43:58;;;;;;;0.50;0.10;;;11.90;99.90;;;;;;4938652;29;20932;-77
2022/11/17 16:46:28;;;;;;;0.50;0.10;;;11.90;99.90;;;;;;4937672;29;20460;-75
2022/11/17 16:49:01;;;;;;;0.50;0.10;;;11.90;99.90;;;;;;4937273;29;20490;-74
2022/11/17 16:51:30;;;;;;;0.50;0.10;;;11.90;99.90;;;;;;4939449;29;20963;-77
2022/11/17 16:54:02;;;;;;;0.50;0.10;;;11.90;99.90;;;;;;4940433;29;20466;-77
2022/11/17 16:56:30;;;;;;;0.50;0.10;;;11.90;99.90;;;;;;4940158;29;20480;-76
2022/11/17 16:58:59;;;;;;;0.50;0.10;;;11.90;99.90;;;;;;4939818;29;20460;-77
2022/11/17 17:01:29;;;;;;;0.50;0.10;;;11.90;99.90;;;;;;4938624;29;20455;-77
2022/11/17 17:03:59;;;;;;;0.50;0.10;;;11.90;99.90;;;;;;4933183;29;20467;-77
2022/11/17 17:06:28;;;;;;;0.50;0.10;;;11.90;99.90;;;;;;4925750;29;21049;-78
2022/11/17 17:08:58;;;;;;;0.50;0.10;;;11.90;99.90;;;;;;4932839;29;20909;-78
2022/11/17 17:11:28;;;;;;;0.50;0.20;;;11.90;99.90;;;;;;4934708;29;20452;-79
2022/11/17 17:13:56;;;;;;;0.60;0.20;;;11.70;99.90;;;;;;4937020;29;20768;-78
2022/11/17 17:16:24;;;;;;;0.50;0.10;;;11.60;99.90;;;;;;4939814;29;20475;-80
2022/11/17 17:18:55;;;;;;;0.50;0.10;;;11.60;99.90;;;;;;4931289;29;20449;-76
2022/11/17 17:21:24;;;;;;;0.50;0.10;;;11.60;99.90;;;;;;4937104;29;20524;-78
2022/11/17 17:23:52;;;;;;;0.50;0.10;;;11.60;99.90;;;;;;4939458;29;20492;-78
2022/11/17 17:26:21;;;;;;;0.50;0.10;;;11.60;99.90;;;;;;4939624;29;20441;-78